Time;durP1;ratioP1;P1;durP2;ratioP2;P2;SDS_P1;SDS_P2;PMS_P1;PMS_P2;Temp;Humidity;BMP_temperature;BMP_pressure;BME280_temperature;BME280_humidity;BME280_pressure;Samples;Min_cycle;Max_cycle;Signal;HPM_P1;HPM_P2
2021/07/06 00:01:05;;;;;;;4.60;3.30;;;16.80;99.90;;;;;;5034150;28;20177;-64
2021/07/06 00:03:30;;;;;;;4.40;3.40;;;16.70;99.90;;;;;;5034286;28;20320;-63
2021/07/06 00:05:56;;;;;;;3.43;3.23;;;16.70;99.90;;;;;;5034146;28;20515;-63
2021/07/06 00:08:21;;;;;;;3.23;2.80;;;16.70;99.90;;;;;;5033736;28;20674;-65
2021/07/06 00:10:47;;;;;;;3.93;3.53;;;16.70;99.90;;;;;;5034182;28;20514;-63
2021/07/06 00:13:12;;;;;;;8.20;4.20;;;16.70;99.90;;;;;;5033827;28;20166;-64
2021/07/06 00:15:38;;;;;;;4.10;3.60;;;16.70;99.90;;;;;;5033863;28;20166;-63
2021/07/06 00:18:04;;;;;;;3.50;3.20;;;16.70;99.90;;;;;;5034005;28;20186;-63
2021/07/06 00:20:30;;;;;;;4.30;3.77;;;16.60;99.90;;;;;;5033724;28;20175;-63
2021/07/06 00:22:58;;;;;;;4.10;3.70;;;16.60;99.90;;;;;;5033777;28;20166;-63
2021/07/06 00:25:25;;;;;;;3.73;3.03;;;16.70;99.90;;;;;;5033839;28;20474;-64
2021/07/06 00:27:51;;;;;;;4.50;3.60;;;16.70;99.90;;;;;;5033473;28;20475;-63
2021/07/06 00:30:17;;;;;;;3.40;3.20;;;16.70;99.90;;;;;;5033338;28;20428;-63
2021/07/06 00:32:43;;;;;;;3.87;3.57;;;16.70;99.90;;;;;;5032911;28;20460;-63
2021/07/06 00:35:09;;;;;;;3.93;3.33;;;16.70;99.90;;;;;;5033677;28;20470;-63
2021/07/06 00:37:35;;;;;;;4.03;3.63;;;16.70;99.90;;;;;;5033411;28;20205;-64
2021/07/06 00:40:01;;;;;;;4.03;3.73;;;16.60;99.90;;;;;;5033261;28;20417;-63
2021/07/06 00:42:26;;;;;;;4.43;3.43;;;16.70;99.90;;;;;;5033349;28;20189;-63
2021/07/06 00:44:53;;;;;;;4.37;4.07;;;16.60;99.90;;;;;;5033329;28;20421;-64
2021/07/06 00:47:30;;;;;;;2.73;2.53;;;16.60;99.90;;;;;;5033262;28;20196;-63
2021/07/06 00:49:55;;;;;;;3.60;3.40;;;16.50;99.90;;;;;;5033056;28;20421;-63
2021/07/06 00:52:21;;;;;;;4.37;4.00;;;16.50;99.90;;;;;;5033267;28;20412;-63
2021/07/06 00:54:46;;;;;;;3.50;3.20;;;16.40;99.90;;;;;;5033307;28;20542;-63
2021/07/06 00:57:12;;;;;;;3.70;3.40;;;16.40;99.90;;;;;;5033165;28;20202;-63
2021/07/06 00:59:38;;;;;;;4.17;3.77;;;16.40;99.90;;;;;;5032731;28;20194;-63
2021/07/06 01:02:03;;;;;;;3.67;3.43;;;16.40;99.90;;;;;;5033068;28;20174;-63
2021/07/06 01:04:29;;;;;;;3.70;3.40;;;16.40;99.90;;;;;;5033006;28;20185;-63
2021/07/06 01:06:54;;;;;;;3.70;3.40;;;16.50;99.90;;;;;;5033053;28;20190;-63
2021/07/06 01:09:20;;;;;;;3.23;2.90;;;16.50;99.90;;;;;;5032599;28;20198;-63
2021/07/06 01:11:46;;;;;;;3.90;3.60;;;16.60;99.90;;;;;;5032787;28;20170;-64
2021/07/06 01:14:12;;;;;;;3.90;3.47;;;16.60;99.90;;;;;;5032672;28;20193;-63
2021/07/06 01:16:37;;;;;;;4.33;3.93;;;16.60;99.90;;;;;;5032806;28;20432;-63
2021/07/06 01:19:04;;;;;;;4.03;3.73;;;16.60;99.90;;;;;;5032473;28;20179;-64
2021/07/06 01:21:30;;;;;;;4.50;4.10;;;16.60;99.90;;;;;;5032766;28;20182;-63
2021/07/06 01:23:55;;;;;;;3.57;3.33;;;16.50;99.90;;;;;;5032645;28;20412;-63
2021/07/06 01:26:21;;;;;;;3.77;3.47;;;16.50;99.90;;;;;;5032469;28;20663;-63
2021/07/06 01:28:47;;;;;;;4.43;3.40;;;16.50;99.90;;;;;;5032118;28;20553;-63
2021/07/06 01:31:12;;;;;;;4.40;3.90;;;16.30;99.90;;;;;;5032650;28;20166;-63
2021/07/06 01:33:38;;;;;;;5.17;3.50;;;16.30;99.90;;;;;;5032510;28;20162;-63
2021/07/06 01:36:07;;;;;;;3.80;3.50;;;16.30;99.90;;;;;;5032431;28;20636;-63
2021/07/06 01:38:33;;;;;;;3.60;3.30;;;16.30;99.90;;;;;;5032129;28;20166;-63
2021/07/06 01:41:04;;;;;;;4.23;3.93;;;16.30;99.90;;;;;;5032192;28;20467;-63
2021/07/06 01:43:29;;;;;;;3.50;3.30;;;16.30;99.90;;;;;;5031393;28;20968;-64
2021/07/06 01:45:55;;;;;;;4.87;3.60;;;16.30;99.90;;;;;;5032338;28;20445;-63
2021/07/06 01:48:21;;;;;;;4.33;3.30;;;16.30;99.90;;;;;;5032006;28;20202;-63
2021/07/06 01:50:46;;;;;;;3.77;3.47;;;16.30;99.90;;;;;;5032186;28;20252;-63
2021/07/06 01:53:14;;;;;;;4.60;4.20;;;16.20;99.90;;;;;;5032336;28;20166;-63
2021/07/06 01:55:43;;;;;;;3.80;3.50;;;16.20;99.90;;;;;;5032510;28;20253;-63
2021/07/06 01:58:11;;;;;;;3.70;3.40;;;16.20;99.90;;;;;;5031967;28;20808;-64
2021/07/06 02:00:47;;;;;;;4.47;4.10;;;16.20;99.90;;;;;;5031922;28;20799;-64
2021/07/06 02:03:13;;;;;;;4.17;3.80;;;16.10;99.90;;;;;;5032155;28;20463;-64
2021/07/06 02:05:41;;;;;;;4.40;4.10;;;16.20;99.90;;;;;;5032326;28;20417;-64
2021/07/06 02:08:09;;;;;;;4.80;4.40;;;16.20;99.90;;;;;;5031825;28;20197;-64
2021/07/06 02:10:36;;;;;;;3.90;3.53;;;16.20;99.90;;;;;;5031978;28;20920;-63
2021/07/06 02:13:03;;;;;;;5.13;4.73;;;16.30;99.90;;;;;;5032149;28;20413;-64
2021/07/06 02:15:29;;;;;;;5.83;5.10;;;16.30;99.90;;;;;;5032011;28;20467;-65
2021/07/06 02:17:55;;;;;;;4.00;3.70;;;16.30;99.90;;;;;;5032178;28;20464;-64
2021/07/06 02:20:21;;;;;;;9.80;4.20;;;16.30;99.90;;;;;;5031655;28;20432;-65
2021/07/06 02:22:49;;;;;;;4.83;4.40;;;16.30;99.90;;;;;;5031699;28;20421;-65
2021/07/06 02:25:17;;;;;;;5.07;4.57;;;16.20;99.90;;;;;;5030508;28;20431;-64
2021/07/06 02:27:47;;;;;;;4.90;4.50;;;16.20;99.90;;;;;;5031797;28;20456;-64
2021/07/06 02:30:16;;;;;;;5.83;4.20;;;16.20;99.90;;;;;;5031512;28;20417;-64
2021/07/06 02:32:42;;;;;;;5.00;4.50;;;16.20;99.90;;;;;;5031820;28;20405;-64
2021/07/06 02:35:09;;;;;;;4.37;3.97;;;16.30;99.90;;;;;;5031633;28;20423;-64
2021/07/06 02:37:36;;;;;;;4.00;3.60;;;16.20;99.90;;;;;;5030394;28;20758;-64
2021/07/06 02:40:05;;;;;;;3.70;3.40;;;16.20;99.90;;;;;;5031370;28;20508;-64
2021/07/06 02:42:31;;;;;;;4.40;4.00;;;16.10;99.90;;;;;;5031674;28;20463;-64
2021/07/06 02:44:56;;;;;;;5.73;4.50;;;16.00;99.90;;;;;;5031665;28;20456;-64
2021/07/06 02:47:22;;;;;;;4.60;4.30;;;16.10;99.90;;;;;;5031683;28;20198;-64
2021/07/06 02:49:47;;;;;;;4.53;4.23;;;16.00;99.90;;;;;;5031245;28;20174;-64
2021/07/06 02:52:13;;;;;;;6.10;4.57;;;16.00;99.90;;;;;;5031597;28;20628;-64
2021/07/06 02:54:39;;;;;;;6.07;5.57;;;16.00;99.90;;;;;;5032205;28;20194;-64
2021/07/06 02:57:08;;;;;;;5.20;4.80;;;15.90;99.90;;;;;;5035233;28;20475;-64
2021/07/06 02:59:34;;;;;;;3.97;3.67;;;15.90;99.90;;;;;;5035124;28;20190;-64
2021/07/06 03:01:59;;;;;;;4.47;4.17;;;16.00;99.90;;;;;;5035346;28;20965;-64
2021/07/06 03:04:25;;;;;;;5.60;4.03;;;16.00;99.90;;;;;;5035207;28;20170;-64
2021/07/06 03:06:50;;;;;;;3.27;3.00;;;16.00;99.90;;;;;;5035175;28;20194;-63
2021/07/06 03:09:16;;;;;;;4.07;3.67;;;15.90;99.90;;;;;;5035032;28;20194;-64
2021/07/06 03:11:43;;;;;;;5.77;4.47;;;15.90;99.90;;;;;;5035206;28;20765;-64
2021/07/06 03:14:08;;;;;;;9.83;3.60;;;15.90;99.90;;;;;;5035174;28;20162;-64
2021/07/06 03:16:34;;;;;;;3.60;3.30;;;16.00;99.90;;;;;;5034950;28;20440;-64
2021/07/06 03:18:59;;;;;;;3.37;3.10;;;16.00;99.90;;;;;;5034692;28;20182;-64
2021/07/06 03:21:26;;;;;;;4.17;3.87;;;16.00;99.90;;;;;;5034995;28;20178;-64
2021/07/06 03:23:52;;;;;;;4.70;4.30;;;16.00;99.90;;;;;;5034938;28;20196;-64
2021/07/06 03:26:17;;;;;;;4.03;3.50;;;16.00;99.90;;;;;;5034835;28;20984;-64
2021/07/06 03:28:43;;;;;;;3.77;3.37;;;16.00;99.90;;;;;;5034513;28;20191;-64
2021/07/06 03:31:08;;;;;;;4.10;3.20;;;16.00;99.90;;;;;;5033483;28;20239;-64
2021/07/06 03:33:34;;;;;;;3.27;2.97;;;16.00;99.90;;;;;;5034781;28;20181;-64
2021/07/06 03:35:59;;;;;;;4.00;3.70;;;15.90;99.90;;;;;;5034638;28;20171;-63
2021/07/06 03:38:25;;;;;;;6.07;5.60;;;15.90;99.90;;;;;;5034377;28;20185;-64
2021/07/06 03:40:51;;;;;;;4.13;3.47;;;15.80;99.90;;;;;;5034639;28;20189;-64
2021/07/06 03:43:16;;;;;;;3.73;3.40;;;15.80;99.90;;;;;;5033262;28;20202;-64
2021/07/06 03:45:42;;;;;;;10.03;3.30;;;15.80;99.90;;;;;;5034689;28;20591;-63
2021/07/06 03:48:07;;;;;;;3.77;3.27;;;15.80;99.90;;;;;;5034686;28;20212;-64
2021/07/06 03:50:33;;;;;;;3.27;3.07;;;15.90;99.90;;;;;;5034339;28;20166;-64
2021/07/06 03:53:00;;;;;;;3.30;3.00;;;16.00;99.90;;;;;;5034350;28;20560;-64
2021/07/06 03:55:27;;;;;;;3.80;3.47;;;16.20;99.90;;;;;;5034617;28;20171;-64
2021/07/06 03:57:53;;;;;;;3.83;3.33;;;16.20;99.90;;;;;;5034752;28;20462;-63
2021/07/06 04:00:25;;;;;;;3.47;3.17;;;16.30;99.90;;;;;;5034091;28;20421;-63
2021/07/06 04:02:50;;;;;;;3.07;2.80;;;16.40;99.90;;;;;;5034232;28;20224;-64
2021/07/06 04:05:17;;;;;;;3.47;3.27;;;16.50;99.90;;;;;;5034200;28;20519;-67
2021/07/06 04:07:42;;;;;;;5.00;3.67;;;16.60;99.90;;;;;;5032835;28;20198;-65
2021/07/06 04:10:10;;;;;;;4.13;3.50;;;16.60;99.90;;;;;;5033869;28;20421;-63
2021/07/06 04:12:37;;;;;;;5.90;4.77;;;16.70;99.90;;;;;;5034031;28;20166;-63
2021/07/06 04:15:08;;;;;;;3.10;2.90;;;16.80;99.90;;;;;;5033980;28;20421;-63
2021/07/06 04:17:34;;;;;;;4.87;3.27;;;16.90;99.90;;;;;;5033854;28;20437;-63
2021/07/06 04:19:59;;;;;;;3.53;3.23;;;17.00;99.90;;;;;;5033675;28;20413;-64
2021/07/06 04:22:25;;;;;;;3.70;3.40;;;17.10;99.90;;;;;;5033840;28;20636;-63
2021/07/06 04:24:51;;;;;;;4.00;3.60;;;17.20;99.90;;;;;;5033941;28;20174;-63
2021/07/06 04:27:16;;;;;;;3.70;3.50;;;17.30;99.90;;;;;;5033627;28;20566;-63
2021/07/06 04:29:42;;;;;;;3.70;3.40;;;17.40;99.90;;;;;;5033865;28;20644;-63
2021/07/06 04:32:07;;;;;;;8.67;6.43;;;17.50;99.90;;;;;;5033758;28;20256;-64
2021/07/06 04:34:33;;;;;;;5.60;3.80;;;17.60;99.90;;;;;;5033617;28;20660;-65
2021/07/06 04:36:58;;;;;;;4.00;3.27;;;17.70;99.90;;;;;;5033530;28;20270;-63
2021/07/06 04:39:24;;;;;;;3.90;3.50;;;17.80;99.90;;;;;;5033249;28;20643;-63
2021/07/06 04:41:50;;;;;;;3.80;3.60;;;17.80;99.90;;;;;;5033480;28;20182;-63
2021/07/06 04:44:15;;;;;;;3.73;3.43;;;17.80;99.90;;;;;;5033322;28;20178;-63
2021/07/06 04:46:41;;;;;;;4.40;3.63;;;17.90;99.90;;;;;;5033375;28;20638;-63
2021/07/06 04:49:07;;;;;;;9.50;3.50;;;17.90;99.90;;;;;;5033007;28;20284;-63
2021/07/06 04:51:35;;;;;;;3.97;3.30;;;18.00;99.90;;;;;;5033231;28;20503;-63
2021/07/06 04:54:01;;;;;;;3.90;3.60;;;18.30;99.90;;;;;;5033371;28;20301;-63
2021/07/06 04:56:28;;;;;;;3.90;3.60;;;18.40;99.90;;;;;;5033098;28;20543;-66
2021/07/06 04:58:54;;;;;;;3.53;3.20;;;18.50;99.90;;;;;;5032882;28;20899;-63
2021/07/06 05:01:20;;;;;;;3.90;3.60;;;18.60;99.90;;;;;;5033201;28;20409;-63
2021/07/06 05:03:47;;;;;;;3.87;3.40;;;18.80;99.90;;;;;;5033070;28;20499;-63
2021/07/06 05:06:12;;;;;;;3.33;3.13;;;19.00;99.90;;;;;;5033007;28;20194;-63
2021/07/06 05:08:39;;;;;;;4.87;4.13;;;19.20;99.90;;;;;;5032017;28;20457;-63
2021/07/06 05:11:04;;;;;;;5.53;3.33;;;19.20;99.90;;;;;;5033037;28;20224;-63
2021/07/06 05:13:31;;;;;;;3.83;2.60;;;19.10;99.90;;;;;;5016377;28;20433;-64
2021/07/06 05:15:56;;;;;;;3.60;3.00;;;18.90;99.90;;;;;;5013166;28;20181;-63
2021/07/06 05:18:22;;;;;;;3.30;2.63;;;18.80;99.90;;;;;;5012506;28;20923;-64
2021/07/06 05:20:47;;;;;;;4.27;3.87;;;18.70;99.90;;;;;;5013023;28;20253;-63
2021/07/06 05:23:13;;;;;;;3.30;2.83;;;18.60;99.90;;;;;;5012942;28;20249;-63
2021/07/06 05:25:38;;;;;;;4.67;3.37;;;18.60;99.90;;;;;;5012942;28;20179;-63
2021/07/06 05:28:04;;;;;;;5.90;3.37;;;18.80;99.90;;;;;;5012628;28;20191;-63
2021/07/06 05:30:29;;;;;;;4.27;3.70;;;19.00;99.90;;;;;;5012580;28;20232;-63
2021/07/06 05:32:57;;;;;;;3.80;3.50;;;19.30;99.90;;;;;;5012884;28;20175;-63
2021/07/06 05:35:23;;;;;;;3.13;2.83;;;19.60;99.90;;;;;;5012813;28;20636;-63
2021/07/06 05:37:48;;;;;;;4.53;2.90;;;19.80;99.90;;;;;;5012629;28;20542;-63
2021/07/06 05:40:15;;;;;;;4.03;2.90;;;20.00;99.90;;;;;;5012382;28;20186;-66
2021/07/06 05:42:42;;;;;;;2.90;2.70;;;20.00;99.90;;;;;;5008470;28;20554;-65
2021/07/06 05:45:09;;;;;;;5.17;2.80;;;20.10;99.90;;;;;;5012407;28;20424;-63
2021/07/06 05:47:36;;;;;;;3.40;2.80;;;20.20;99.90;;;;;;5012068;28;20931;-63
2021/07/06 05:50:11;;;;;;;2.30;2.20;;;20.30;99.90;;;;;;5012176;28;20421;-63
2021/07/06 05:52:37;;;;;;;2.73;2.23;;;20.40;99.90;;;;;;5012634;28;20420;-63
2021/07/06 05:55:04;;;;;;;2.27;1.90;;;20.50;99.90;;;;;;5012427;28;20414;-63
2021/07/06 05:57:30;;;;;;;3.13;2.57;;;20.60;99.90;;;;;;5012243;28;20214;-63
2021/07/06 06:00:00;;;;;;;2.30;2.10;;;20.70;99.90;;;;;;5012111;28;20414;-62
2021/07/06 06:02:26;;;;;;;3.00;2.50;;;20.80;99.90;;;;;;5012666;28;20189;-62
2021/07/06 06:04:52;;;;;;;2.27;2.13;;;20.90;99.90;;;;;;5012409;28;20788;-66
2021/07/06 06:07:18;;;;;;;3.00;2.47;;;21.00;99.90;;;;;;5012782;28;20472;-63
2021/07/06 06:09:44;;;;;;;2.20;2.00;;;21.20;99.90;;;;;;5011838;28;20450;-63
2021/07/06 06:12:10;;;;;;;2.70;2.20;;;21.50;99.90;;;;;;5010321;28;20718;-63
2021/07/06 06:14:37;;;;;;;2.63;2.43;;;21.80;99.90;;;;;;5014576;28;20224;-63
2021/07/06 06:17:03;;;;;;;2.10;1.93;;;22.10;99.90;;;;;;5016690;28;20983;-63
2021/07/06 06:19:28;;;;;;;2.93;2.07;;;22.30;99.90;;;;;;5029584;28;20424;-62
2021/07/06 06:21:54;;;;;;;2.03;1.83;;;22.30;99.90;;;;;;5013436;28;20174;-63
2021/07/06 06:24:19;;;;;;;2.87;2.03;;;22.40;99.90;;;;;;5012303;28;20253;-64
2021/07/06 06:26:47;;;;;;;2.10;1.90;;;22.50;99.90;;;;;;5009659;28;20202;-65
2021/07/06 06:29:13;;;;;;;2.30;1.53;;;22.70;99.90;;;;;;4992974;28;20321;-65
2021/07/06 06:31:38;;;;;;;2.97;1.93;;;22.90;99.90;;;;;;5005376;28;20426;-65
2021/07/06 06:34:04;;;;;;;2.80;1.73;;;22.90;99.90;;;;;;5016151;28;20777;-64
2021/07/06 06:36:29;;;;;;;2.00;1.87;;;22.90;99.90;;;;;;5016066;28;20274;-64
2021/07/06 06:38:55;;;;;;;2.43;1.80;;;23.00;99.90;;;;;;5011640;28;20658;-66
2021/07/06 06:41:20;;;;;;;1.70;1.60;;;23.10;99.90;;;;;;5022153;28;20296;-65
2021/07/06 06:43:46;;;;;;;7.13;2.00;;;23.30;99.90;;;;;;5035735;28;20177;-65
2021/07/06 06:46:11;;;;;;;2.43;1.60;;;23.20;99.90;;;;;;5033856;28;20190;-64
2021/07/06 06:48:37;;;;;;;1.60;1.50;;;23.30;99.90;;;;;;5019643;28;20276;-64
2021/07/06 06:51:03;;;;;;;3.93;1.83;;;23.40;99.90;;;;;;5011036;28;20544;-65
2021/07/06 06:53:28;;;;;;;2.80;1.70;;;23.50;99.90;;;;;;4996578;28;20190;-67
2021/07/06 06:55:54;;;;;;;1.60;1.50;;;23.70;99.90;;;;;;4994871;28;20172;-64
2021/07/06 06:58:19;;;;;;;1.97;1.83;;;23.80;99.90;;;;;;5018626;28;20674;-64
2021/07/06 07:00:45;;;;;;;2.33;1.70;;;23.80;99.90;;;;;;5034865;28;20228;-65
2021/07/06 07:03:10;;;;;;;1.80;1.70;;;23.80;99.90;;;;;;5035395;28;20181;-65
2021/07/06 07:05:36;;;;;;;4.30;2.03;;;23.80;99.90;;;;;;5018499;28;20262;-64
2021/07/06 07:08:02;;;;;;;2.07;1.63;;;24.10;99.90;;;;;;5012525;28;20631;-67
2021/07/06 07:10:28;;;;;;;2.57;2.37;;;24.60;99.90;;;;;;5015251;28;20383;-64
2021/07/06 07:12:54;;;;;;;2.50;2.00;;;25.20;99.90;;;;;;5015432;28;20917;-64
2021/07/06 07:15:20;;;;;;;1.70;1.60;;;25.40;99.90;;;;;;5028975;28;20190;-64
2021/07/06 07:17:46;;;;;;;2.20;2.00;;;25.40;99.90;;;;;;5026153;28;20538;-64
2021/07/06 07:20:12;;;;;;;3.57;3.27;;;25.00;99.90;;;;;;5015020;28;20429;-65
2021/07/06 07:22:38;;;;;;;2.60;2.00;;;24.90;99.90;;;;;;5015178;28;20513;-64
2021/07/06 07:25:04;;;;;;;3.43;2.10;;;24.90;99.90;;;;;;5015275;28;20418;-65
2021/07/06 07:27:30;;;;;;;2.00;1.80;;;24.90;99.90;;;;;;5012487;28;21033;-65
2021/07/06 07:29:57;;;;;;;4.03;1.47;;;24.60;99.90;;;;;;5014836;28;20179;-64
2021/07/06 07:32:23;;;;;;;3.00;1.63;;;24.70;99.90;;;;;;5015031;28;20429;-64
2021/07/06 07:34:48;;;;;;;2.20;2.00;;;25.00;99.90;;;;;;5014998;28;20422;-67
2021/07/06 07:37:16;;;;;;;2.00;1.57;;;25.30;99.90;;;;;;5008002;28;20475;-67
2021/07/06 07:39:43;;;;;;;3.40;2.50;;;25.40;99.90;;;;;;5020983;28;20187;-68
2021/07/06 07:42:09;;;;;;;1.97;1.83;;;25.40;99.90;;;;;;5016797;28;20437;-67
2021/07/06 07:44:34;;;;;;;4.13;2.20;;;25.70;99.90;;;;;;5020785;28;20433;-67
2021/07/06 07:47:00;;;;;;;1.97;1.80;;;25.60;99.90;;;;;;5019155;28;20214;-67
2021/07/06 07:49:26;;;;;;;4.93;2.33;;;25.70;99.90;;;;;;5008606;28;20217;-67
2021/07/06 07:51:52;;;;;;;1.93;1.83;;;25.80;99.90;;;;;;5014228;28;20941;-67
2021/07/06 07:54:17;;;;;;;2.17;1.97;;;25.80;99.90;;;;;;5031590;28;20636;-67
2021/07/06 07:56:43;;;;;;;2.00;1.90;;;25.80;99.90;;;;;;5022221;28;20211;-67
2021/07/06 07:59:11;;;;;;;1.50;1.40;;;25.50;99.90;;;;;;5012051;28;20182;-68
2021/07/06 08:01:38;;;;;;;2.90;1.87;;;25.40;99.90;;;;;;5011450;28;20257;-68
2021/07/06 08:04:04;;;;;;;2.47;1.90;;;25.10;99.90;;;;;;5011755;28;21081;-67
2021/07/06 08:06:29;;;;;;;2.33;1.80;;;25.20;99.90;;;;;;5010939;28;20543;-67
2021/07/06 08:08:55;;;;;;;1.90;1.80;;;24.90;99.90;;;;;;5009656;28;20552;-67
2021/07/06 08:11:21;;;;;;;2.47;2.27;;;24.90;99.90;;;;;;5011147;28;20179;-67
2021/07/06 08:13:47;;;;;;;2.10;2.00;;;24.90;99.90;;;;;;5010604;28;20181;-67
2021/07/06 08:16:13;;;;;;;1.70;1.60;;;25.00;99.90;;;;;;5010858;28;20528;-67
2021/07/06 08:18:39;;;;;;;3.47;2.03;;;25.50;99.90;;;;;;5007344;28;20194;-67
2021/07/06 08:21:05;;;;;;;4.30;2.47;;;26.10;99.90;;;;;;5011345;28;20462;-67
2021/07/06 08:23:30;;;;;;;2.20;2.10;;;26.40;99.90;;;;;;5010651;28;20187;-67
2021/07/06 08:25:56;;;;;;;2.10;2.00;;;26.40;99.90;;;;;;5011494;28;20426;-68
2021/07/06 08:28:22;;;;;;;1.97;1.87;;;26.60;99.90;;;;;;5016378;28;20197;-67
2021/07/06 08:30:49;;;;;;;2.93;2.13;;;26.80;99.90;;;;;;5021123;28;20226;-67
2021/07/06 08:33:14;;;;;;;1.90;1.80;;;27.10;99.90;;;;;;5013636;28;20417;-67
2021/07/06 08:35:40;;;;;;;2.40;1.83;;;27.30;99.90;;;;;;5013455;28;20438;-67
2021/07/06 08:38:06;;;;;;;1.70;1.60;;;27.50;99.90;;;;;;5018803;28;20620;-66
2021/07/06 08:40:32;;;;;;;1.97;1.80;;;27.70;99.90;;;;;;5033315;28;20537;-67
2021/07/06 08:43:00;;;;;;;1.80;1.70;;;28.00;99.90;;;;;;5033469;28;20178;-67
2021/07/06 08:45:26;;;;;;;1.70;1.60;;;28.20;99.90;;;;;;5013550;28;20241;-67
2021/07/06 08:47:54;;;;;;;1.50;1.40;;;28.50;99.90;;;;;;5015007;28;20970;-67
2021/07/06 08:50:20;;;;;;;2.70;1.50;;;28.70;99.90;;;;;;5032809;28;20421;-66
2021/07/06 08:52:46;;;;;;;1.43;1.30;;;28.50;99.90;;;;;;5032752;28;20428;-65
2021/07/06 08:55:13;;;;;;;1.67;1.40;;;28.20;99.90;;;;;;5029372;28;20430;-66
2021/07/06 08:57:40;;;;;;;1.67;1.57;;;28.10;99.90;;;;;;5011549;28;20221;-63
2021/07/06 09:00:07;;;;;;;1.43;1.33;;;28.10;99.90;;;;;;5012910;28;20437;-66
2021/07/06 09:02:33;;;;;;;1.57;1.47;;;28.70;99.90;;;;;;5012034;28;20513;-66
2021/07/06 09:04:59;;;;;;;3.80;1.43;;;29.40;99.90;;;;;;5013213;28;20910;-65
2021/07/06 09:07:40;;;;;;;2.40;1.53;;;29.10;99.90;;;;;;5010572;28;20316;-66
2021/07/06 09:10:17;;;;;;;2.07;1.87;;;28.60;99.90;;;;;;5016946;28;20171;-66
2021/07/06 09:12:44;;;;;;;2.10;2.00;;;28.50;99.90;;;;;;5015736;28;20918;-66
2021/07/06 09:15:26;;;;;;;2.57;1.90;;;28.60;99.90;;;;;;5027254;28;20417;-66
2021/07/06 09:18:17;;;;;;;3.30;2.30;;;28.40;99.90;;;;;;5015237;28;20499;-65
2021/07/06 09:20:57;;;;;;;1.73;1.63;;;28.30;99.90;;;;;;5009644;28;20460;-66
2021/07/06 09:23:29;;;;;;;2.63;2.03;;;28.40;99.90;;;;;;5010832;28;20433;-65
2021/07/06 09:26:19;;;;;;;3.30;2.93;;;28.70;99.90;;;;;;5011304;28;20501;-65
2021/07/06 09:28:51;;;;;;;2.60;2.17;;;28.50;99.90;;;;;;5005529;28;20468;-65
2021/07/06 09:31:17;;;;;;;2.37;2.13;;;28.10;99.90;;;;;;5010361;28;20461;-65
2021/07/06 09:33:49;;;;;;;4.20;2.30;;;27.70;99.90;;;;;;5009589;28;20517;-65
2021/07/06 09:36:33;;;;;;;2.70;2.33;;;26.40;99.90;;;;;;5009400;28;20468;-68
2021/07/06 09:39:10;;;;;;;3.63;2.50;;;25.40;99.90;;;;;;5021202;28;20659;-68
2021/07/06 09:41:36;;;;;;;6.43;2.87;;;25.00;99.90;;;;;;5029201;28;20519;-67
2021/07/06 09:44:21;;;;;;;3.73;2.33;;;24.80;99.90;;;;;;5029168;28;20425;-67
2021/07/06 09:46:49;;;;;;;2.23;2.00;;;24.60;99.90;;;;;;5014121;28;20460;-67
2021/07/06 09:49:21;;;;;;;1.97;1.87;;;24.40;99.90;;;;;;5006267;28;20465;-68
2021/07/06 09:51:48;;;;;;;2.60;2.20;;;24.20;99.90;;;;;;5007775;28;20421;-68
2021/07/06 09:54:28;;;;;;;2.80;1.90;;;24.00;99.90;;;;;;5009393;28;21199;-67
2021/07/06 09:57:32;;;;;;;1.77;1.67;;;24.20;99.90;;;;;;5026997;22;20490;-64
2021/07/06 10:00:00;;;;;;;1.90;1.80;;;24.60;99.90;;;;;;4993248;28;20525;-64
2021/07/06 10:02:27;;;;;;;2.63;2.07;;;25.40;99.90;;;;;;4990691;28;20713;-65
2021/07/06 10:04:55;;;;;;;2.50;1.20;;;26.10;99.90;;;;;;4990750;28;20429;-64
2021/07/06 10:07:22;;;;;;;1.73;1.10;;;27.00;99.90;;;;;;4985689;28;20453;-64
2021/07/06 10:09:48;;;;;;;1.40;1.30;;;27.50;99.90;;;;;;4972332;28;20554;-64
2021/07/06 10:12:15;;;;;;;2.70;1.23;;;27.80;99.90;;;;;;4973225;28;20428;-65
2021/07/06 10:14:42;;;;;;;5.10;4.70;;;27.50;99.90;;;;;;4972893;28;20424;-65
2021/07/06 10:17:08;;;;;;;1.40;1.30;;;27.20;99.90;;;;;;4970083;28;20443;-63
2021/07/06 10:19:34;;;;;;;2.47;1.03;;;27.10;99.90;;;;;;4971022;28;20431;-64
2021/07/06 10:22:00;;;;;;;1.80;1.70;;;26.80;99.90;;;;;;4973068;28;20438;-64
2021/07/06 10:24:26;;;;;;;1.10;1.00;;;26.40;99.90;;;;;;4973125;28;20452;-64
2021/07/06 10:26:58;;;;;;;0.73;0.73;;;26.10;99.90;;;;;;4973075;28;20188;-64
2021/07/06 10:29:35;;;;;;;1.63;1.10;;;26.00;99.90;;;;;;4968724;28;20220;-63
2021/07/06 10:32:01;;;;;;;4.97;1.53;;;26.10;99.90;;;;;;4972983;28;20426;-61
2021/07/06 10:34:28;;;;;;;1.20;1.10;;;26.30;99.90;;;;;;4973148;28;20439;-63
2021/07/06 10:36:55;;;;;;;1.70;1.07;;;26.30;99.90;;;;;;4972898;28;20788;-62
2021/07/06 10:39:44;;;;;;;1.10;0.87;;;26.60;99.90;;;;;;4969306;28;20518;-64
2021/07/06 10:42:09;;;;;;;1.43;1.10;;;26.70;99.90;;;;;;4972616;28;20419;-63
2021/07/06 10:44:37;;;;;;;2.27;1.00;;;26.00;99.90;;;;;;4973165;28;20785;-64
2021/07/06 10:47:03;;;;;;;1.00;0.90;;;25.90;99.90;;;;;;4971745;28;20235;-63
2021/07/06 10:49:33;;;;;;;1.70;0.80;;;25.60;99.90;;;;;;4970054;28;20490;-64
2021/07/06 10:52:01;;;;;;;0.83;0.83;;;25.40;99.90;;;;;;4972890;28;20787;-63
2021/07/06 10:54:32;;;;;;;1.53;0.90;;;25.40;99.90;;;;;;4972969;28;20420;-64
2021/07/06 10:57:14;;;;;;;0.67;0.67;;;25.20;99.90;;;;;;4972720;28;20463;-64
2021/07/06 10:59:40;;;;;;;0.93;0.90;;;25.20;99.90;;;;;;4971081;28;20431;-64
2021/07/06 11:02:21;;;;;;;1.20;1.10;;;25.30;99.90;;;;;;4988541;28;20419;-63
2021/07/06 11:04:46;;;;;;;0.80;0.80;;;25.30;99.90;;;;;;4990919;28;20919;-64
2021/07/06 11:07:39;;;;;;;0.80;0.80;;;25.60;99.90;;;;;;4988491;28;20434;-63
2021/07/06 11:10:07;;;;;;;1.53;0.70;;;25.70;99.90;;;;;;4968231;28;20537;-64
2021/07/06 11:12:43;;;;;;;0.70;0.70;;;25.70;99.90;;;;;;4972575;28;20823;-64
2021/07/06 11:15:12;;;;;;;0.80;0.80;;;25.70;99.90;;;;;;4972692;28;20470;-64
2021/07/06 11:17:39;;;;;;;0.90;0.90;;;25.80;99.90;;;;;;4972568;28;20454;-64
2021/07/06 11:20:29;;;;;;;2.60;1.00;;;26.20;99.90;;;;;;4975271;28;20542;-64
2021/07/06 11:22:56;;;;;;;0.70;0.70;;;26.40;99.90;;;;;;4976230;28;20423;-64
2021/07/06 11:25:25;;;;;;;2.30;1.40;;;26.70;99.90;;;;;;4974981;28;20510;-65
2021/07/06 11:28:13;;;;;;;0.80;0.80;;;26.90;99.90;;;;;;4972669;28;20451;-65
2021/07/06 11:30:47;;;;;;;1.33;0.80;;;27.20;99.90;;;;;;4975750;28;20431;-64
2021/07/06 11:33:31;;;;;;;1.00;1.00;;;27.50;99.90;;;;;;4976025;28;20427;-65
2021/07/06 11:36:29;;;;;;;1.80;1.70;;;27.20;99.90;;;;;;4976279;28;20451;-65
2021/07/06 11:38:57;;;;;;;2.37;2.17;;;26.70;99.90;;;;;;4969038;28;20470;-64
2021/07/06 11:41:23;;;;;;;0.80;0.70;;;26.60;99.90;;;;;;4975987;28;20419;-63
2021/07/06 11:43:49;;;;;;;0.80;0.80;;;26.50;99.90;;;;;;4975727;28;20498;-65
2021/07/06 11:46:17;;;;;;;1.53;0.83;;;26.40;99.90;;;;;;4975568;28;20835;-65
2021/07/06 11:48:44;;;;;;;0.80;0.80;;;25.90;99.90;;;;;;4971641;28;20196;-65
2021/07/06 11:51:19;;;;;;;0.70;0.70;;;25.80;99.90;;;;;;4975376;28;20522;-63
2021/07/06 11:53:55;;;;;;;2.03;0.97;;;25.70;99.90;;;;;;4975850;28;20426;-65
2021/07/06 11:56:26;;;;;;;1.03;0.80;;;25.60;99.90;;;;;;4978541;28;20427;-64
2021/07/06 11:58:52;;;;;;;1.80;1.70;;;25.50;99.90;;;;;;4976448;28;20696;-64
2021/07/06 12:01:18;;;;;;;5.37;4.87;;;25.40;99.90;;;;;;4975317;28;20424;-64
2021/07/06 12:03:44;;;;;;;1.00;1.00;;;25.40;99.90;;;;;;4975067;28;20431;-65
2021/07/06 12:06:12;;;;;;;0.90;0.90;;;25.30;99.90;;;;;;4975346;28;20188;-64
2021/07/06 12:08:48;;;;;;;0.80;0.80;;;25.40;99.90;;;;;;4971180;28;20710;-64
2021/07/06 12:11:15;;;;;;;1.10;1.00;;;25.70;99.90;;;;;;4975323;28;20427;-64
2021/07/06 12:13:41;;;;;;;0.80;0.80;;;26.20;99.90;;;;;;4977250;28;20458;-64
2021/07/06 12:16:18;;;;;;;0.97;0.60;;;26.50;99.90;;;;;;4994482;28;20415;-64
2021/07/06 12:19:09;;;;;;;1.43;0.90;;;26.90;99.90;;;;;;4976569;28;20203;-64
2021/07/06 12:21:40;;;;;;;0.90;0.67;;;27.00;99.90;;;;;;4972806;28;20936;-65
2021/07/06 12:24:11;;;;;;;0.70;0.70;;;27.10;99.90;;;;;;4975024;28;20828;-64
2021/07/06 12:26:45;;;;;;;1.17;1.07;;;27.20;99.90;;;;;;4974511;28;20458;-63
2021/07/06 12:29:12;;;;;;;1.43;0.70;;;27.10;99.90;;;;;;4968756;28;20458;-64
2021/07/06 12:31:38;;;;;;;0.60;0.60;;;27.00;99.90;;;;;;4992616;28;20423;-64
2021/07/06 12:34:08;;;;;;;0.80;0.80;;;26.70;99.90;;;;;;4978809;28;20423;-64
2021/07/06 12:36:52;;;;;;;1.00;0.90;;;26.60;99.90;;;;;;4974562;28;20443;-64
2021/07/06 12:39:24;;;;;;;2.63;1.10;;;26.40;99.90;;;;;;4969370;28;20432;-63
2021/07/06 12:42:14;;;;;;;1.57;1.17;;;26.30;99.90;;;;;;4974883;28;20780;-65
2021/07/06 12:44:45;;;;;;;0.73;0.73;;;26.50;99.90;;;;;;4984700;28;20777;-64
2021/07/06 12:47:19;;;;;;;0.70;0.70;;;26.60;99.90;;;;;;4991091;28;20431;-62
2021/07/06 12:49:52;;;;;;;3.07;1.10;;;26.70;99.90;;;;;;4973304;28;20498;-65
2021/07/06 12:52:19;;;;;;;1.63;1.20;;;26.50;99.90;;;;;;4974387;28;20419;-64